CA-0101 weather

CLOSED Cowpar Airport
Alberta, Canada

Public forecast

Using degrees Celsius for public forecast. Weather courtesy of forecast.io.

Closest aviation weather report (METAR) to Cowpar Airport

Closest report is Fort McMurray Airport, 48.6 nm (90.0 km) NNW. Retrieved 2020/06/02 05:00 UTC (54 minutes ago):

CYMM 020500Z AUTO 18005KT 9SM FEW220 OVC240 09/05 A2977 RMK SLP094

Closest aviation forecast (TAF) to Cowpar Airport

Closest forecast is Fort McMurray Airport, 48.6 nm (90.0 km) NNW. Retrieved 2020-06-02 01:39 UTC (4 hours ago):

TAF TAF CYMM 020038Z 0201/0213 30015G25KT P6SM BKN040 BECMG 0202/0204 30008KT FM020700 28006KT P6SM FEW040 FM021000 22006KT P6SM SCT080 BKN200 RMK FCST BASED ON AUTO OBS NXT FCST BY 020700Z